createdAt,value
2018-07-17T00:00:22.823Z,23.31
2018-07-17T00:02:51.847Z,23.35
2018-07-17T00:05:20.916Z,23.22
2018-07-17T00:07:50.293Z,23.11
2018-07-17T00:10:19.354Z,23.06
2018-07-17T00:12:48.439Z,23.00
2018-07-17T00:15:17.976Z,22.94
2018-07-17T00:17:46.906Z,23.02
2018-07-17T00:20:15.992Z,22.92
2018-07-17T00:22:45.996Z,22.92
2018-07-17T00:25:15.156Z,22.91
2018-07-17T00:27:44.164Z,22.80
2018-07-17T00:30:13.521Z,22.92
2018-07-17T00:32:42.555Z,22.84
2018-07-17T00:35:11.748Z,22.82
2018-07-17T00:37:40.838Z,22.80
2018-07-17T00:40:13.016Z,22.75
2018-07-17T00:42:42.212Z,22.72
2018-07-17T00:45:11.252Z,22.64
2018-07-17T00:47:40.497Z,22.53
2018-07-17T00:50:09.409Z,22.40
2018-07-17T00:52:38.361Z,22.23
2018-07-17T00:55:07.562Z,22.24
2018-07-17T00:57:36.587Z,22.25
2018-07-17T01:00:06.128Z,22.26
2018-07-17T01:02:40.140Z,22.11
2018-07-17T01:05:14.339Z,22.10
2018-07-17T01:07:48.814Z,22.22
2018-07-17T01:10:22.882Z,22.14
2018-07-17T01:12:51.281Z,22.12
2018-07-17T01:15:50.605Z,21.99
2018-07-17T01:18:19.917Z,21.98
2018-07-17T01:20:48.934Z,21.99
2018-07-17T01:23:18.064Z,22.06
2018-07-17T01:25:47.657Z,22.07
2018-07-17T01:28:16.787Z,22.08
2018-07-17T01:30:45.793Z,22.04
2018-07-17T01:33:14.889Z,22.04
2018-07-17T01:35:43.991Z,22.17
2018-07-17T01:38:12.963Z,22.31
2018-07-17T01:40:42.135Z,22.36
2018-07-17T01:43:11.300Z,22.33
2018-07-17T01:45:40.445Z,22.24
2018-07-17T01:48:09.479Z,22.18
2018-07-17T01:50:38.400Z,22.17
2018-07-17T01:53:07.379Z,22.11
2018-07-17T01:55:36.556Z,22.03
2018-07-17T01:58:05.622Z,22.09
2018-07-17T02:00:34.664Z,22.11
2018-07-17T02:03:04.071Z,22.08
2018-07-17T02:05:32.997Z,21.90
2018-07-17T02:08:02.110Z,21.91
2018-07-17T02:10:31.428Z,22.06
2018-07-17T02:13:00.520Z,22.03
2018-07-17T02:15:29.607Z,21.88
2018-07-17T02:17:58.763Z,21.90
2018-07-17T02:20:27.795Z,21.85
2018-07-17T02:22:56.848Z,21.86
2018-07-17T02:25:26.309Z,21.81
2018-07-17T02:27:55.317Z,21.99
2018-07-17T02:30:24.276Z,22.09
2018-07-17T02:32:53.887Z,22.03
2018-07-17T02:35:22.893Z,22.05
2018-07-17T02:37:51.922Z,22.05
2018-07-17T02:40:24.895Z,22.00
2018-07-17T02:42:54.109Z,22.08
2018-07-17T02:45:23.297Z,22.05
2018-07-17T02:47:52.367Z,22.11
2018-07-17T02:50:21.820Z,22.09
2018-07-17T02:52:51.092Z,22.12
2018-07-17T02:55:26.755Z,22.06
2018-07-17T02:57:56.224Z,22.09
2018-07-17T03:00:26.527Z,22.05
2018-07-17T03:02:55.432Z,22.02
2018-07-17T03:05:24.273Z,21.97
2018-07-17T03:07:54.246Z,22.00
2018-07-17T03:10:23.731Z,21.95
2018-07-17T03:12:56.441Z,21.97
2018-07-17T03:15:25.886Z,21.88
2018-07-17T03:17:54.985Z,21.87
2018-07-17T03:20:24.096Z,21.93
2018-07-17T03:22:53.052Z,21.98
2018-07-17T03:25:23.138Z,21.98
2018-07-17T03:27:53.716Z,22.00
2018-07-17T03:30:22.724Z,22.05
2018-07-17T03:32:51.667Z,22.06
2018-07-17T03:35:20.860Z,22.14
2018-07-17T03:37:49.894Z,22.17
2018-07-17T03:40:18.906Z,22.19
2018-07-17T03:42:48.488Z,22.20
2018-07-17T03:45:17.465Z,22.27
2018-07-17T03:47:46.485Z,22.30
2018-07-17T03:50:15.781Z,22.26
2018-07-17T03:52:44.955Z,22.29
2018-07-17T03:55:14.116Z,22.46
2018-07-17T03:57:43.096Z,22.58
2018-07-17T04:00:12.191Z,22.75
2018-07-17T04:02:41.438Z,22.82
2018-07-17T04:05:10.436Z,22.93
2018-07-17T04:07:39.458Z,22.96
2018-07-17T04:10:08.628Z,22.90
2018-07-17T04:12:37.575Z,22.87
2018-07-17T04:15:06.581Z,22.83
2018-07-17T04:17:35.624Z,22.81
2018-07-17T04:20:05.316Z,22.83
2018-07-17T04:22:34.436Z,22.99
2018-07-17T04:25:03.654Z,23.07
2018-07-17T04:27:32.876Z,23.33
2018-07-17T04:30:01.882Z,23.60
2018-07-17T04:32:31.090Z,24.00
2018-07-17T04:35:00.358Z,24.22
2018-07-17T04:37:29.457Z,24.30
2018-07-17T04:39:58.587Z,24.60
2018-07-17T04:42:27.595Z,24.96
2018-07-17T04:44:56.829Z,25.26
2018-07-17T04:47:25.818Z,25.61
2018-07-17T04:49:55.239Z,25.20
2018-07-17T04:52:24.529Z,25.21
2018-07-17T04:54:53.588Z,25.78
2018-07-17T04:57:22.790Z,26.28
2018-07-17T04:59:51.854Z,26.70
2018-07-17T05:02:20.995Z,26.79
2018-07-17T05:04:50.126Z,27.07
2018-07-17T05:07:19.149Z,27.48
2018-07-17T05:09:48.255Z,27.75
2018-07-17T05:12:17.563Z,27.93
2018-07-17T05:14:47.568Z,28.18
2018-07-17T05:17:16.530Z,28.24
2018-07-17T05:19:45.706Z,28.68
2018-07-17T05:22:14.630Z,28.89
2018-07-17T05:24:43.872Z,28.97
2018-07-17T05:27:12.983Z,29.10
2018-07-17T05:29:41.958Z,29.48
2018-07-17T05:32:11.673Z,29.84
2018-07-17T05:34:40.912Z,29.01
2018-07-17T05:37:09.895Z,29.34
2018-07-17T05:39:39.025Z,29.94
2018-07-17T05:42:08.258Z,28.89
2018-07-17T05:44:37.625Z,29.48
2018-07-17T05:47:06.836Z,29.77
2018-07-17T05:49:36.591Z,29.61
2018-07-17T05:52:05.701Z,29.99
2018-07-17T05:54:34.630Z,29.78
2018-07-17T05:57:04.178Z,29.98
2018-07-17T05:59:33.187Z,30.57
2018-07-17T06:02:02.292Z,31.02
2018-07-17T06:04:31.671Z,31.24
2018-07-17T06:07:00.662Z,30.29
2018-07-17T06:09:29.796Z,30.37
2018-07-17T06:11:58.806Z,30.23
2018-07-17T06:14:27.889Z,29.79
2018-07-17T06:16:57.056Z,30.16
2018-07-17T06:19:26.139Z,30.56
2018-07-17T06:21:55.129Z,30.23
2018-07-17T06:24:24.039Z,29.43
2018-07-17T06:26:53.203Z,29.43
2018-07-17T06:29:22.740Z,29.49
2018-07-17T06:31:51.775Z,29.05
2018-07-17T06:34:21.414Z,28.32
2018-07-17T06:36:50.440Z,27.85
2018-07-17T06:39:19.514Z,27.85
2018-07-17T06:41:48.675Z,28.07
2018-07-17T06:44:17.621Z,27.98
2018-07-17T06:46:46.783Z,28.28
2018-07-17T06:49:16.172Z,28.38
2018-07-17T06:51:45.132Z,28.28
2018-07-17T06:54:14.155Z,28.15
2018-07-17T06:56:43.275Z,27.90
2018-07-17T06:59:12.499Z,28.12
2018-07-17T07:01:41.363Z,28.35
2018-07-17T07:04:10.481Z,28.36
2018-07-17T07:06:39.483Z,28.51
2018-07-17T07:09:09.982Z,28.50
2018-07-17T07:11:39.650Z,28.49
2018-07-17T07:14:08.559Z,28.56
2018-07-17T07:16:37.556Z,28.49
2018-07-17T07:19:07.237Z,28.38
2018-07-17T07:21:36.248Z,28.35
2018-07-17T07:24:05.422Z,28.18
2018-07-17T07:26:34.502Z,28.19
2018-07-17T07:29:03.562Z,28.20
2018-07-17T07:31:32.676Z,28.35
2018-07-17T07:34:01.714Z,28.48
2018-07-17T07:36:30.812Z,28.53
2018-07-17T07:38:59.804Z,28.68
2018-07-17T07:41:28.894Z,28.66
2018-07-17T07:43:58.307Z,28.93
2018-07-17T07:46:27.424Z,28.93
2018-07-17T07:48:56.760Z,29.00
2018-07-17T07:51:25.831Z,29.20
2018-07-17T07:53:54.937Z,29.20
2018-07-17T07:56:24.330Z,29.35
2018-07-17T08:05:38.701Z,30.06
2018-07-17T08:08:07.639Z,30.42
2018-07-17T08:12:06.477Z,30.74
2018-07-17T08:14:35.631Z,31.05
2018-07-17T08:18:07.344Z,31.18
2018-07-17T08:20:36.361Z,31.18
2018-07-17T08:23:05.293Z,31.24
2018-07-17T08:25:34.524Z,31.11
2018-07-17T08:28:03.494Z,31.07
2018-07-17T08:30:32.527Z,31.23
2018-07-17T08:33:02.016Z,31.50
2018-07-17T08:35:30.848Z,31.87
2018-07-17T08:37:59.847Z,31.74
2018-07-17T08:40:29.005Z,32.06
2018-07-17T08:42:57.903Z,32.58
2018-07-17T08:45:26.864Z,32.88
2018-07-17T08:47:56.144Z,32.98
2018-07-17T08:50:25.063Z,32.48
2018-07-17T08:52:54.019Z,32.43
2018-07-17T08:55:23.244Z,32.89
2018-07-17T08:57:52.160Z,32.90
2018-07-17T09:00:21.331Z,33.09
2018-07-17T09:02:50.937Z,32.79
2018-07-17T09:05:19.864Z,32.83
2018-07-17T09:07:48.958Z,32.67
2018-07-17T09:10:18.797Z,32.58
2018-07-17T09:12:47.752Z,32.81
2018-07-17T09:15:16.782Z,32.62
2018-07-17T09:17:45.762Z,32.15
2018-07-17T09:20:14.874Z,31.75
2018-07-17T09:22:43.883Z,31.24
2018-07-17T09:25:13.558Z,30.76
2018-07-17T09:27:42.614Z,30.40
2018-07-17T09:30:11.724Z,29.38
2018-07-17T09:32:41.266Z,28.10
2018-07-17T09:35:10.267Z,27.05
2018-07-17T09:37:39.354Z,26.02
2018-07-17T09:40:08.787Z,25.65
2018-07-17T09:42:37.993Z,25.47
2018-07-17T09:45:07.351Z,25.26
2018-07-17T09:47:36.239Z,25.10
2018-07-17T09:50:05.188Z,24.80
2018-07-17T09:52:34.200Z,24.70
2018-07-17T09:55:03.510Z,24.50
2018-07-17T09:57:32.460Z,24.50
2018-07-17T10:00:01.522Z,24.42
2018-07-17T10:02:32.025Z,24.32
2018-07-17T10:05:01.191Z,24.23
2018-07-17T10:07:30.168Z,24.23
2018-07-17T10:09:59.385Z,24.15
2018-07-17T10:12:28.435Z,23.96
2018-07-17T10:14:57.568Z,23.77
2018-07-17T10:18:29.854Z,23.51
2018-07-17T10:20:58.807Z,23.33
2018-07-17T10:23:28.063Z,23.32
2018-07-17T10:25:57.342Z,23.30
2018-07-17T10:28:26.327Z,23.27
2018-07-17T10:30:55.391Z,23.30
2018-07-17T10:33:24.537Z,23.24
2018-07-17T10:35:53.651Z,23.33
2018-07-17T10:38:22.627Z,23.43
2018-07-17T10:40:51.770Z,23.78
2018-07-17T10:43:20.861Z,24.11
2018-07-17T10:45:49.888Z,24.45
2018-07-17T10:48:19.093Z,24.78
2018-07-17T10:50:48.111Z,25.36
2018-07-17T10:53:17.250Z,25.44
2018-07-17T10:55:46.662Z,25.96
2018-07-17T10:58:15.619Z,26.48
2018-07-17T11:00:44.696Z,26.97
2018-07-17T11:03:13.868Z,26.71
2018-07-17T11:05:43.956Z,26.96
2018-07-17T11:08:13.344Z,27.14
2018-07-17T11:10:42.372Z,27.53
2018-07-17T11:13:11.456Z,27.76
2018-07-17T11:15:40.667Z,28.17
2018-07-17T11:18:09.686Z,28.17
2018-07-17T11:20:38.637Z,28.14
2018-07-17T11:23:07.622Z,28.33
2018-07-17T11:25:36.638Z,28.78
2018-07-17T11:34:50.998Z,29.76
2018-07-17T11:37:20.132Z,30.07
2018-07-17T11:39:49.210Z,29.70
2018-07-17T11:42:18.893Z,29.62
2018-07-17T11:44:47.898Z,29.52
2018-07-17T11:47:17.004Z,29.62
2018-07-17T11:49:46.354Z,29.54
2018-07-17T11:52:15.280Z,29.39
2018-07-17T11:54:44.417Z,29.28
2018-07-17T11:57:13.702Z,29.25
2018-07-17T11:59:42.731Z,29.11
2018-07-17T12:02:11.896Z,28.89
2018-07-17T12:04:41.529Z,28.79
2018-07-17T12:07:10.481Z,28.95
2018-07-17T12:09:39.524Z,29.12
2018-07-17T12:12:08.792Z,29.38
2018-07-17T12:14:37.755Z,29.43
2018-07-17T12:17:06.820Z,29.50
2018-07-17T12:19:36.345Z,29.56
2018-07-17T12:22:05.511Z,29.50
2018-07-17T12:24:34.779Z,29.69
2018-07-17T12:27:04.094Z,29.98
2018-07-17T12:29:33.092Z,30.30
2018-07-17T12:32:02.460Z,30.57
2018-07-17T12:34:31.718Z,30.56
2018-07-17T12:37:00.845Z,30.60
2018-07-17T12:39:29.898Z,30.56
2018-07-17T12:41:59.450Z,30.69
2018-07-17T12:44:28.570Z,30.79
2018-07-17T12:46:57.659Z,30.86
2018-07-17T12:49:26.859Z,30.77
2018-07-17T12:51:55.922Z,30.97
2018-07-17T12:54:24.926Z,30.86
2018-07-17T12:56:54.491Z,30.74
2018-07-17T12:59:23.445Z,31.10
2018-07-17T13:01:52.299Z,30.95
2018-07-17T13:04:34.676Z,30.71
2018-07-17T13:07:03.702Z,30.88
2018-07-17T13:09:32.827Z,31.16
2018-07-17T13:12:02.077Z,31.22
2018-07-17T13:14:31.129Z,31.50
2018-07-17T13:17:00.218Z,31.44
2018-07-17T13:19:29.609Z,31.41
2018-07-17T13:21:58.532Z,31.02
2018-07-17T13:24:27.416Z,30.82
2018-07-17T13:26:57.614Z,30.86
2018-07-17T13:29:26.685Z,30.27
2018-07-17T13:31:55.815Z,30.23
2018-07-17T13:34:25.455Z,30.17
2018-07-17T13:36:54.489Z,30.15
2018-07-17T13:39:23.484Z,30.21
2018-07-17T13:41:52.654Z,30.24
2018-07-17T13:44:21.817Z,30.11
2018-07-17T13:46:50.918Z,30.16
2018-07-17T13:49:20.089Z,30.10
2018-07-17T13:51:49.295Z,30.04
2018-07-17T13:54:18.405Z,30.00
2018-07-17T13:56:47.508Z,29.91
2018-07-17T13:59:16.447Z,29.58
2018-07-17T14:01:45.652Z,29.43
2018-07-17T14:04:15.380Z,29.41
2018-07-17T14:06:44.408Z,29.32
2018-07-17T14:09:15.617Z,29.21
2018-07-17T14:11:44.820Z,29.02
2018-07-17T14:14:14.451Z,28.99
2018-07-17T14:16:43.826Z,28.96
2018-07-17T14:19:12.828Z,29.01
2018-07-17T14:21:49.124Z,28.99
2018-07-17T14:24:18.213Z,28.94
2018-07-17T14:26:47.590Z,29.09
2018-07-17T14:29:16.658Z,29.13
2018-07-17T14:31:46.680Z,29.17
2018-07-17T14:34:15.608Z,29.19
2018-07-17T14:36:45.316Z,29.25
2018-07-17T14:39:14.514Z,29.15
2018-07-17T14:41:43.752Z,29.33
2018-07-17T14:44:12.932Z,29.39
2018-07-17T14:46:41.873Z,29.34
2018-07-17T14:49:10.803Z,29.30
2018-07-17T14:51:39.911Z,29.41
2018-07-17T14:54:09.031Z,29.47
2018-07-17T14:56:38.066Z,29.69
2018-07-17T14:59:07.321Z,29.89
2018-07-17T15:01:36.351Z,30.24
2018-07-17T15:04:05.350Z,30.31
2018-07-17T15:06:34.730Z,30.44
2018-07-17T15:09:08.755Z,30.41
2018-07-17T15:11:37.972Z,30.55
2018-07-17T15:14:07.103Z,30.32
2018-07-17T15:16:36.224Z,30.26
2018-07-17T15:19:05.767Z,30.09
2018-07-17T15:21:34.808Z,30.11
2018-07-17T15:24:03.804Z,30.17
2018-07-17T15:26:33.029Z,30.09
2018-07-17T15:29:01.999Z,30.16
2018-07-17T15:31:31.228Z,30.08
2018-07-17T15:34:00.267Z,30.18
2018-07-17T15:36:29.292Z,30.22
2018-07-17T15:38:58.383Z,30.15
2018-07-17T15:41:27.423Z,30.07
2018-07-17T15:43:56.482Z,30.08
2018-07-17T15:46:25.469Z,30.04
2018-07-17T15:48:54.658Z,30.06
2018-07-17T15:51:23.663Z,29.98
2018-07-17T15:53:52.747Z,29.92
2018-07-17T15:56:22.166Z,29.74
2018-07-17T15:58:51.075Z,29.73
2018-07-17T16:01:20.152Z,29.65
2018-07-17T16:03:49.208Z,29.66
2018-07-17T16:06:18.238Z,29.60
2018-07-17T16:08:47.500Z,29.52
2018-07-17T16:11:16.772Z,29.61
2018-07-17T16:13:46.146Z,29.65
2018-07-17T16:16:15.145Z,29.71
2018-07-17T16:18:44.312Z,29.69
2018-07-17T16:21:13.503Z,29.48
2018-07-17T16:23:42.596Z,29.43
2018-07-17T16:26:12.101Z,29.47
2018-07-17T16:28:41.087Z,29.44
2018-07-17T16:31:10.159Z,29.22
2018-07-17T16:33:39.435Z,29.07
2018-07-17T16:36:08.607Z,28.94
2018-07-17T16:38:37.652Z,28.96
2018-07-17T16:41:07.495Z,28.89
2018-07-17T16:43:36.430Z,28.77
2018-07-17T16:46:05.712Z,28.81
2018-07-17T16:48:34.899Z,28.83
2018-07-17T16:51:03.980Z,28.58
2018-07-17T16:53:32.997Z,28.71
2018-07-17T16:56:02.281Z,28.68
2018-07-17T16:58:31.411Z,28.55
2018-07-17T17:01:00.580Z,28.60
2018-07-17T17:03:29.835Z,28.60
2018-07-17T17:05:58.904Z,28.64
2018-07-17T17:08:28.131Z,28.53
2018-07-17T17:10:57.303Z,28.57
2018-07-17T17:13:26.272Z,28.50
2018-07-17T17:15:55.143Z,28.27
2018-07-17T17:18:24.672Z,28.19
2018-07-17T17:20:53.713Z,28.21
2018-07-17T17:23:22.670Z,28.10
2018-07-17T17:25:51.669Z,27.90
2018-07-17T17:28:20.759Z,28.01
2018-07-17T17:30:49.862Z,28.01
2018-07-17T17:33:19.243Z,27.81
2018-07-17T17:35:48.270Z,27.84
2018-07-17T17:38:17.262Z,27.65
2018-07-17T17:40:46.575Z,27.58
2018-07-17T17:43:15.739Z,27.43
2018-07-17T17:45:44.881Z,27.28
2018-07-17T17:48:13.972Z,27.19
2018-07-17T17:50:43.032Z,26.99
2018-07-17T17:53:12.121Z,26.88
2018-07-17T17:55:41.328Z,26.77
2018-07-17T17:58:10.447Z,26.89
2018-07-17T18:00:39.569Z,26.77
2018-07-17T18:03:08.599Z,26.81
2018-07-17T18:05:37.720Z,26.81
2018-07-17T18:08:06.987Z,26.96
2018-07-17T18:10:36.181Z,27.02
2018-07-17T18:13:05.148Z,27.00
2018-07-17T18:15:34.063Z,27.00
2018-07-17T18:18:03.679Z,27.04
2018-07-17T18:21:35.419Z,26.89
2018-07-17T18:24:05.405Z,26.74
2018-07-17T18:26:34.322Z,26.83
2018-07-17T18:29:03.257Z,26.86
2018-07-17T18:31:32.388Z,26.77
2018-07-17T18:34:01.515Z,26.72
2018-07-17T18:36:30.882Z,26.63
2018-07-17T18:39:00.364Z,26.59
2018-07-17T18:41:29.455Z,26.68
2018-07-17T18:43:58.538Z,26.78
2018-07-17T18:46:28.046Z,26.82
2018-07-17T18:48:56.959Z,26.80
2018-07-17T18:51:25.860Z,26.77
2018-07-17T18:53:55.072Z,26.74
2018-07-17T18:56:24.152Z,26.68
2018-07-17T18:58:53.186Z,26.67
2018-07-17T19:01:22.226Z,26.71
2018-07-17T19:03:51.372Z,26.64
2018-07-17T19:06:20.535Z,26.64
2018-07-17T19:08:49.762Z,26.69
2018-07-17T19:11:18.926Z,26.69
2018-07-17T19:13:47.931Z,26.67
2018-07-17T19:16:17.142Z,26.65
2018-07-17T19:18:47.170Z,26.62
2018-07-17T19:21:17.362Z,26.54
2018-07-17T19:23:46.446Z,26.50
2018-07-17T19:26:15.458Z,26.42
2018-07-17T19:28:44.712Z,26.37
2018-07-17T19:31:13.606Z,26.33
2018-07-17T19:33:43.464Z,26.32
2018-07-17T19:36:12.387Z,26.27
2018-07-17T19:38:41.414Z,26.22
2018-07-17T19:41:10.758Z,26.14
2018-07-17T19:43:39.668Z,26.06
2018-07-17T19:46:08.630Z,26.02
2018-07-17T19:48:37.746Z,26.00
2018-07-17T19:51:07.349Z,26.02
2018-07-17T19:53:36.474Z,26.02
2018-07-17T19:56:05.543Z,25.99
2018-07-17T19:58:34.536Z,25.95
2018-07-17T20:01:03.645Z,25.88
2018-07-17T20:03:32.632Z,25.83
2018-07-17T20:06:01.546Z,25.76
2018-07-17T20:08:30.979Z,25.68
2018-07-17T20:10:59.904Z,25.63
2018-07-17T20:13:28.772Z,25.60
2018-07-17T20:15:58.296Z,25.58
2018-07-17T20:18:27.247Z,25.51
2018-07-17T20:20:56.349Z,25.49
2018-07-17T20:23:25.944Z,25.46
2018-07-17T20:25:55.081Z,25.46
2018-07-17T20:28:23.969Z,25.46
2018-07-17T20:30:53.258Z,25.46
2018-07-17T20:33:22.285Z,25.44
2018-07-17T20:35:51.332Z,25.42
2018-07-17T20:38:20.593Z,25.39
2018-07-17T20:40:49.715Z,25.35
2018-07-17T20:43:18.835Z,25.33
2018-07-17T20:45:47.877Z,25.28
2018-07-17T20:48:16.995Z,25.28
2018-07-17T20:50:46.138Z,25.30
2018-07-17T20:53:15.364Z,25.30
2018-07-17T20:55:44.417Z,25.25
2018-07-17T20:58:13.556Z,25.14
2018-07-17T21:00:42.728Z,25.17
2018-07-17T21:03:11.793Z,25.26
2018-07-17T21:05:40.779Z,25.18
2018-07-17T21:08:10.112Z,25.15
2018-07-17T21:10:39.070Z,25.08
2018-07-17T21:13:07.992Z,25.13
2018-07-17T21:15:37.655Z,25.16
2018-07-17T21:18:08.908Z,25.15
2018-07-17T21:20:38.185Z,25.16
2018-07-17T21:23:07.340Z,25.13
2018-07-17T21:25:36.307Z,25.10
2018-07-17T21:28:05.882Z,25.09
2018-07-17T21:30:35.012Z,25.14
2018-07-17T21:33:03.997Z,25.14
2018-07-17T21:35:33.146Z,25.09
2018-07-17T21:38:02.409Z,25.15
2018-07-17T21:40:31.384Z,25.18
2018-07-17T21:43:00.506Z,25.13
2018-07-17T21:45:29.528Z,25.18
2018-07-17T21:47:58.645Z,25.18
2018-07-17T21:50:27.692Z,25.18
2018-07-17T21:52:56.780Z,25.15
2018-07-17T21:55:25.995Z,25.19
2018-07-17T21:57:55.064Z,25.19
2018-07-17T22:00:24.087Z,25.17
2018-07-17T22:02:53.141Z,25.15
2018-07-17T22:05:23.294Z,25.16
2018-07-17T22:07:52.499Z,25.15
2018-07-17T22:10:21.468Z,25.14
2018-07-17T22:12:50.782Z,25.13
2018-07-17T22:15:19.944Z,25.11
2018-07-17T22:17:49.010Z,25.07
2018-07-17T22:20:18.071Z,25.04
2018-07-17T22:22:47.160Z,25.03
2018-07-17T22:25:16.228Z,25.00
2018-07-17T22:27:45.341Z,24.98
2018-07-17T22:30:14.449Z,24.96
2018-07-17T22:32:43.388Z,24.94
2018-07-17T22:35:13.111Z,24.92
2018-07-17T22:37:42.101Z,24.87
2018-07-17T22:40:11.257Z,24.82
2018-07-17T22:42:40.691Z,24.79
2018-07-17T22:45:09.755Z,24.79
2018-07-17T22:47:38.906Z,24.74
2018-07-17T22:50:08.175Z,24.74
2018-07-17T22:52:37.217Z,24.76
2018-07-17T22:55:06.474Z,24.76
2018-07-17T22:57:35.933Z,24.72
2018-07-17T23:00:05.142Z,24.68
2018-07-17T23:02:34.170Z,24.65
2018-07-17T23:05:03.647Z,24.63
2018-07-17T23:07:32.613Z,24.60
2018-07-17T23:10:01.913Z,24.53
2018-07-17T23:12:31.547Z,24.49
2018-07-17T23:15:00.479Z,24.49
2018-07-17T23:17:29.572Z,24.46
2018-07-17T23:19:58.720Z,24.46
2018-07-17T23:22:59.460Z,24.46
2018-07-17T23:25:29.928Z,24.41
2018-07-17T23:27:59.391Z,24.37
2018-07-17T23:30:28.478Z,24.35
2018-07-17T23:32:57.668Z,24.34
2018-07-17T23:35:26.821Z,24.33
2018-07-17T23:37:55.974Z,24.34
2018-07-17T23:40:25.408Z,24.35
2018-07-17T23:42:54.606Z,24.32
2018-07-17T23:45:23.598Z,24.29
2018-07-17T23:47:53.148Z,24.27
2018-07-17T23:50:22.289Z,24.17
2018-07-17T23:52:51.373Z,24.14
2018-07-17T23:55:20.615Z,24.11
2018-07-17T23:57:49.739Z,24.06
